Time;durP1;ratioP1;P1;durP2;ratioP2;P2;SDS_P1;SDS_P2;PMS_P1;PMS_P2;Temp;Humidity;BMP_temperature;BMP_pressure;BME280_temperature;BME280_humidity;BME280_pressure;Samples;Min_cycle;Max_cycle;Signal;HPM_P1;HPM_P2
2021/08/15 00:02:06;;;;;;;5.20;2.47;;;17.00;99.90;;;;;;5066863;28;20037;-71
2021/08/15 00:04:32;;;;;;;8.73;2.75;;;17.00;99.90;;;;;;5068150;28;20052;-73
2021/08/15 00:06:58;;;;;;;5.75;2.47;;;17.00;99.90;;;;;;5068078;28;20021;-70
2021/08/15 00:09:24;;;;;;;7.35;1.83;;;16.90;99.90;;;;;;5067937;28;20598;-69
2021/08/15 00:11:49;;;;;;;5.93;2.70;;;16.90;99.90;;;;;;5067865;28;20021;-70
2021/08/15 00:14:15;;;;;;;7.65;1.95;;;16.90;99.90;;;;;;5067403;28;20049;-72
2021/08/15 00:16:41;;;;;;;5.03;2.85;;;16.90;99.90;;;;;;5067755;28;20024;-71
2021/08/15 00:19:07;;;;;;;5.63;2.15;;;16.90;99.90;;;;;;5067725;28;20035;-72
2021/08/15 00:21:35;;;;;;;4.47;2.00;;;16.90;99.90;;;;;;5067937;28;20108;-73
2021/08/15 00:24:00;;;;;;;3.25;1.90;;;16.90;99.90;;;;;;5067847;28;20033;-72
2021/08/15 00:26:26;;;;;;;5.57;2.85;;;16.80;99.90;;;;;;5067691;28;20021;-72
2021/08/15 00:28:52;;;;;;;7.60;3.17;;;16.90;99.90;;;;;;5067632;28;20025;-71
2021/08/15 00:31:17;;;;;;;5.85;2.92;;;16.90;99.90;;;;;;5067597;28;20025;-72
2021/08/15 00:33:43;;;;;;;6.88;2.78;;;17.00;99.90;;;;;;5067529;28;20068;-72
2021/08/15 00:36:08;;;;;;;4.80;2.50;;;17.00;99.90;;;;;;5067352;28;20084;-72
2021/08/15 00:38:35;;;;;;;6.57;2.50;;;16.90;99.90;;;;;;5067474;28;20021;-73
2021/08/15 00:41:02;;;;;;;6.57;2.53;;;16.80;99.90;;;;;;5065625;28;20029;-72
2021/08/15 00:43:31;;;;;;;5.28;2.47;;;17.00;99.90;;;;;;5066717;28;20029;-71
2021/08/15 00:45:57;;;;;;;5.47;2.70;;;17.00;99.90;;;;;;5067374;28;20025;-71
2021/08/15 00:48:23;;;;;;;9.20;2.80;;;17.00;99.90;;;;;;5067283;28;20054;-71
2021/08/15 00:50:48;;;;;;;9.38;2.60;;;17.00;99.90;;;;;;5067196;28;20028;-71
2021/08/15 00:53:14;;;;;;;6.60;2.85;;;17.00;99.90;;;;;;5065714;28;20033;-72
2021/08/15 00:55:40;;;;;;;5.85;3.08;;;17.00;99.90;;;;;;5066798;28;20028;-73
2021/08/15 00:58:06;;;;;;;3.83;2.13;;;17.10;99.90;;;;;;5067152;28;20028;-71
2021/08/15 01:00:33;;;;;;;13.13;2.95;;;17.10;99.90;;;;;;5066886;28;20057;-71
2021/08/15 01:02:59;;;;;;;8.60;3.08;;;17.20;99.90;;;;;;5067103;28;20033;-71
2021/08/15 01:05:26;;;;;;;5.28;2.17;;;17.10;99.90;;;;;;5066807;28;20503;-71
2021/08/15 01:07:51;;;;;;;10.63;2.50;;;17.10;99.90;;;;;;5066803;28;20028;-71
2021/08/15 01:10:17;;;;;;;4.68;2.10;;;17.10;99.90;;;;;;5066755;28;20059;-71
2021/08/15 01:12:44;;;;;;;11.98;2.72;;;17.10;99.90;;;;;;5066765;28;20025;-72
2021/08/15 01:15:11;;;;;;;4.97;2.65;;;17.10;99.90;;;;;;5066536;28;20417;-73
2021/08/15 01:17:38;;;;;;;5.88;2.35;;;17.10;99.90;;;;;;5066754;28;20033;-74
2021/08/15 01:20:05;;;;;;;4.78;2.63;;;17.10;99.90;;;;;;5066652;28;20065;-72
2021/08/15 01:22:42;;;;;;;6.72;2.15;;;17.10;99.90;;;;;;5066736;28;20155;-71
2021/08/15 01:25:09;;;;;;;10.70;2.53;;;17.10;99.90;;;;;;5066615;28;20025;-71
2021/08/15 01:27:42;;;;;;;8.95;3.05;;;17.10;99.90;;;;;;5066621;28;20033;-71
2021/08/15 01:30:13;;;;;;;6.93;2.90;;;17.20;99.90;;;;;;5066511;28;20096;-72
2021/08/15 01:32:43;;;;;;;8.32;3.22;;;17.10;99.90;;;;;;5066482;28;20025;-73
2021/08/15 01:35:10;;;;;;;5.22;2.95;;;17.00;99.90;;;;;;5066100;28;20545;-71
2021/08/15 01:37:36;;;;;;;8.02;2.78;;;17.00;99.90;;;;;;5066426;28;20371;-72
2021/08/15 01:40:03;;;;;;;11.15;3.38;;;16.90;99.90;;;;;;5066501;28;20090;-71
2021/08/15 01:42:30;;;;;;;6.97;3.15;;;16.90;99.90;;;;;;5066349;28;20085;-71
2021/08/15 01:44:58;;;;;;;8.82;2.72;;;16.90;99.90;;;;;;5066320;28;20025;-71
2021/08/15 01:47:26;;;;;;;9.38;3.60;;;16.80;99.90;;;;;;5066081;28;20376;-71
2021/08/15 01:49:52;;;;;;;6.05;2.63;;;16.80;99.90;;;;;;5066064;28;20100;-71
2021/08/15 01:52:17;;;;;;;6.47;2.95;;;16.80;99.90;;;;;;5066013;28;20086;-70
2021/08/15 01:54:43;;;;;;;7.65;2.88;;;16.70;99.90;;;;;;5063568;28;20045;-71
2021/08/15 01:57:09;;;;;;;4.47;2.35;;;16.70;99.90;;;;;;5065863;28;20063;-72
2021/08/15 01:59:35;;;;;;;16.33;3.08;;;16.70;99.90;;;;;;5065986;28;20017;-73
2021/08/15 02:02:00;;;;;;;13.82;3.53;;;16.70;99.90;;;;;;5064627;28;20060;-72
2021/08/15 02:04:26;;;;;;;4.40;2.33;;;16.70;99.90;;;;;;5065771;28;20021;-71
2021/08/15 02:06:51;;;;;;;6.93;2.65;;;16.70;99.90;;;;;;5065746;28;20112;-72
2021/08/15 02:09:17;;;;;;;12.65;3.50;;;16.70;99.90;;;;;;5065768;28;20119;-72
2021/08/15 02:11:42;;;;;;;13.90;3.65;;;16.70;99.90;;;;;;5065539;28;20025;-71
2021/08/15 02:14:08;;;;;;;6.70;2.83;;;16.80;99.90;;;;;;5065290;28;20098;-73
2021/08/15 02:16:35;;;;;;;6.93;2.78;;;16.80;99.90;;;;;;5065774;28;20025;-73
2021/08/15 02:19:00;;;;;;;10.10;3.15;;;16.80;99.90;;;;;;5065562;28;20503;-72
2021/08/15 02:21:26;;;;;;;7.18;2.63;;;16.80;99.90;;;;;;5065505;28;20036;-71
2021/08/15 02:23:52;;;;;;;7.93;2.83;;;16.80;99.90;;;;;;5065455;28;20024;-72
2021/08/15 02:26:17;;;;;;;7.03;3.22;;;16.80;99.90;;;;;;5065258;28;20063;-72
2021/08/15 02:28:43;;;;;;;7.40;3.30;;;16.80;99.90;;;;;;5065316;28;20116;-73
2021/08/15 02:31:08;;;;;;;5.15;2.53;;;16.80;99.90;;;;;;5064019;28;20029;-71
2021/08/15 02:33:34;;;;;;;14.18;3.25;;;16.80;99.90;;;;;;5065258;28;20029;-71
2021/08/15 02:36:00;;;;;;;7.35;3.60;;;16.90;99.90;;;;;;5065130;28;20049;-71
2021/08/15 02:38:25;;;;;;;11.05;2.63;;;16.80;99.90;;;;;;5065094;28;20051;-72
2021/08/15 02:40:51;;;;;;;10.18;2.70;;;16.70;99.90;;;;;;5065080;28;20040;-72
2021/08/15 02:43:17;;;;;;;13.13;3.28;;;16.80;99.90;;;;;;5063842;28;20088;-72
2021/08/15 02:45:43;;;;;;;21.92;3.47;;;16.70;99.90;;;;;;5065060;28;20036;-72
2021/08/15 02:48:10;;;;;;;6.97;2.58;;;16.70;99.90;;;;;;5063711;28;20021;-72
2021/08/15 02:50:36;;;;;;;8.05;3.10;;;16.70;99.90;;;;;;5065211;28;20029;-72
2021/08/15 02:53:04;;;;;;;7.88;3.28;;;16.70;99.90;;;;;;5065192;28;20040;-72
2021/08/15 02:55:29;;;;;;;10.60;3.47;;;16.70;99.90;;;;;;5064980;28;20080;-73
2021/08/15 02:57:55;;;;;;;7.43;3.47;;;16.70;99.90;;;;;;5063631;28;20401;-71
2021/08/15 03:00:21;;;;;;;18.90;3.80;;;16.70;99.90;;;;;;5064822;28;20029;-72
2021/08/15 03:02:46;;;;;;;13.45;4.03;;;16.70;99.90;;;;;;5064822;28;20072;-69
2021/08/15 03:05:12;;;;;;;5.78;3.00;;;16.70;99.90;;;;;;5063093;28;20033;-71
2021/08/15 03:07:38;;;;;;;9.88;2.92;;;16.70;99.90;;;;;;5064689;28;20025;-71
2021/08/15 03:10:06;;;;;;;11.88;3.30;;;16.70;99.90;;;;;;5064667;28;20033;-71
2021/08/15 03:12:32;;;;;;;11.65;3.28;;;16.70;99.90;;;;;;5064906;28;20037;-71
2021/08/15 03:14:57;;;;;;;6.22;3.47;;;16.60;99.90;;;;;;5064457;28;20061;-70
2021/08/15 03:17:24;;;;;;;8.93;3.00;;;16.70;99.90;;;;;;5064364;28;20037;-70
2021/08/15 03:19:50;;;;;;;4.80;2.55;;;16.70;99.90;;;;;;5064660;28;20534;-70
2021/08/15 03:22:15;;;;;;;7.18;3.45;;;16.70;99.90;;;;;;5064507;28;20060;-70
2021/08/15 03:24:41;;;;;;;9.00;3.15;;;16.70;99.90;;;;;;5064458;28;20112;-71
2021/08/15 03:27:07;;;;;;;12.80;3.03;;;16.70;99.90;;;;;;5064608;28;20071;-69
2021/08/15 03:29:33;;;;;;;8.38;3.08;;;16.70;99.90;;;;;;5064674;28;20032;-69
2021/08/15 03:31:58;;;;;;;5.55;3.17;;;16.70;99.90;;;;;;5063352;28;20029;-71
2021/08/15 03:34:24;;;;;;;17.67;3.33;;;16.60;99.90;;;;;;5064330;28;20056;-70
2021/08/15 03:36:50;;;;;;;4.57;2.67;;;16.60;99.90;;;;;;5064205;28;20017;-71
2021/08/15 03:39:16;;;;;;;12.02;3.30;;;16.60;99.90;;;;;;5063069;28;20040;-70
2021/08/15 03:41:42;;;;;;;11.32;3.80;;;16.60;99.90;;;;;;5064339;28;20034;-71
2021/08/15 03:44:07;;;;;;;5.72;2.83;;;16.60;99.90;;;;;;5064316;28;20055;-71
2021/08/15 03:46:33;;;;;;;5.90;2.97;;;16.70;99.90;;;;;;5064435;28;20025;-72
2021/08/15 03:48:59;;;;;;;13.88;3.72;;;16.50;99.90;;;;;;5064465;28;20051;-72
2021/08/15 03:51:24;;;;;;;14.35;3.53;;;16.60;99.90;;;;;;5064142;28;20036;-71
2021/08/15 03:53:50;;;;;;;7.68;2.90;;;16.60;99.90;;;;;;5064060;28;20088;-70
2021/08/15 03:56:15;;;;;;;10.13;3.78;;;16.60;99.90;;;;;;5063967;28;20029;-71
2021/08/15 03:58:41;;;;;;;15.07;3.85;;;16.60;99.90;;;;;;5064330;28;20097;-71
2021/08/15 04:01:07;;;;;;;10.38;3.80;;;16.60;99.90;;;;;;5064298;28;20029;-71
2021/08/15 04:03:34;;;;;;;13.88;4.13;;;16.60;99.90;;;;;;5064616;28;20037;-71
2021/08/15 04:06:06;;;;;;;13.13;3.42;;;16.60;99.90;;;;;;5064265;28;20029;-70
2021/08/15 04:08:32;;;;;;;10.73;3.67;;;16.60;99.90;;;;;;5064242;28;20028;-71
2021/08/15 04:10:57;;;;;;;9.77;3.30;;;16.70;99.90;;;;;;5064289;28;20021;-71
2021/08/15 04:13:24;;;;;;;23.92;3.55;;;16.60;99.90;;;;;;5063716;28;20484;-72
2021/08/15 04:15:50;;;;;;;10.45;2.95;;;16.60;99.90;;;;;;5062536;28;20045;-71
2021/08/15 04:18:16;;;;;;;8.32;3.45;;;16.70;99.90;;;;;;5066359;28;20017;-71
2021/08/15 04:20:41;;;;;;;10.02;3.45;;;16.70;99.90;;;;;;5067718;28;20025;-71
2021/08/15 04:23:08;;;;;;;21.98;3.58;;;16.70;99.90;;;;;;5067716;28;20033;-72
2021/08/15 04:25:34;;;;;;;4.70;2.63;;;16.70;99.90;;;;;;5067964;28;20051;-73
2021/08/15 04:28:00;;;;;;;8.50;3.15;;;16.70;99.90;;;;;;5067872;28;20021;-71
2021/08/15 04:30:26;;;;;;;4.10;2.38;;;16.60;99.90;;;;;;5067350;28;20028;-72
2021/08/15 04:32:51;;;;;;;19.25;3.47;;;16.70;99.90;;;;;;5066354;28;20492;-71
2021/08/15 04:35:17;;;;;;;8.57;2.70;;;16.70;99.90;;;;;;5067516;28;20174;-72
2021/08/15 04:37:42;;;;;;;13.98;3.40;;;16.70;99.90;;;;;;5067333;28;20041;-72
2021/08/15 04:40:09;;;;;;;5.40;2.45;;;16.80;99.90;;;;;;5067542;28;20056;-73
2021/08/15 04:42:34;;;;;;;11.50;2.30;;;16.70;99.90;;;;;;5067209;28;20029;-72
2021/08/15 04:45:00;;;;;;;6.15;2.40;;;16.80;99.90;;;;;;5067557;28;20033;-71
2021/08/15 04:47:26;;;;;;;5.22;2.28;;;16.80;99.90;;;;;;5067329;28;20021;-72
2021/08/15 04:49:51;;;;;;;7.35;2.42;;;16.90;99.90;;;;;;5067319;28;20061;-72
2021/08/15 04:52:17;;;;;;;6.07;2.42;;;16.90;99.90;;;;;;5067241;28;20421;-73
2021/08/15 04:54:42;;;;;;;4.25;1.70;;;16.90;99.90;;;;;;5066906;28;20071;-73
2021/08/15 04:57:08;;;;;;;4.88;2.67;;;16.90;99.90;;;;;;5066878;28;20051;-74
2021/08/15 04:59:33;;;;;;;13.32;3.53;;;16.90;99.90;;;;;;5065804;28;20055;-73
2021/08/15 05:02:01;;;;;;;8.32;2.63;;;17.00;99.90;;;;;;5067113;28;20041;-71
2021/08/15 05:04:27;;;;;;;9.90;2.50;;;17.00;99.90;;;;;;5067031;28;20104;-73
2021/08/15 05:06:52;;;;;;;6.97;3.15;;;17.00;99.90;;;;;;5066975;28;20025;-71
2021/08/15 05:09:18;;;;;;;11.68;3.75;;;17.00;99.90;;;;;;5066670;28;20032;-70
2021/08/15 05:11:43;;;;;;;6.55;2.63;;;17.10;99.90;;;;;;5066712;28;20070;-71
2021/08/15 05:14:10;;;;;;;8.40;3.22;;;17.10;99.90;;;;;;5066503;28;20056;-72
2021/08/15 05:16:35;;;;;;;5.80;2.83;;;17.10;99.90;;;;;;5066798;28;20025;-71
2021/08/15 05:19:03;;;;;;;6.68;3.10;;;17.10;99.90;;;;;;5065284;28;20033;-73
2021/08/15 05:21:29;;;;;;;6.53;2.47;;;17.10;99.90;;;;;;5066790;28;20112;-71
2021/08/15 05:23:54;;;;;;;9.18;2.75;;;17.10;99.90;;;;;;5066463;28;20028;-71
2021/08/15 05:26:20;;;;;;;9.57;3.30;;;17.10;99.90;;;;;;5066332;28;20039;-70
2021/08/15 05:28:45;;;;;;;15.95;3.88;;;17.10;99.90;;;;;;5066277;28;20107;-71
2021/08/15 05:31:11;;;;;;;6.00;3.05;;;17.10;99.90;;;;;;5066409;28;20029;-71
2021/08/15 05:33:37;;;;;;;10.50;3.47;;;17.20;99.90;;;;;;5066571;28;20466;-72
2021/08/15 05:36:03;;;;;;;6.10;2.63;;;17.20;99.90;;;;;;5065012;28;20041;-73
2021/08/15 05:38:33;;;;;;;9.05;3.05;;;17.20;99.90;;;;;;5066234;28;20032;-73
2021/08/15 05:40:58;;;;;;;10.57;3.55;;;17.20;99.90;;;;;;5066330;28;20474;-71
2021/08/15 05:43:24;;;;;;;9.38;2.85;;;17.20;99.90;;;;;;5066261;28;20027;-74
2021/08/15 05:45:49;;;;;;;16.20;3.53;;;17.20;99.90;;;;;;5064710;28;20847;-71
2021/08/15 05:48:15;;;;;;;9.48;3.70;;;17.20;99.90;;;;;;5070537;28;20039;-72
2021/08/15 05:50:41;;;;;;;11.30;3.13;;;17.20;99.90;;;;;;5068459;28;20061;-72
2021/08/15 05:53:06;;;;;;;6.68;2.90;;;17.20;99.90;;;;;;5076926;28;20035;-71
2021/08/15 05:55:32;;;;;;;7.75;3.05;;;17.30;99.90;;;;;;5085793;28;20044;-71
2021/08/15 05:57:57;;;;;;;13.40;3.25;;;17.30;99.90;;;;;;5074571;28;20025;-71
2021/08/15 06:00:23;;;;;;;5.30;2.88;;;17.20;99.90;;;;;;5066014;28;20021;-71
2021/08/15 06:02:48;;;;;;;8.70;3.67;;;17.30;99.90;;;;;;5065772;28;20054;-72
2021/08/15 06:05:14;;;;;;;6.15;3.10;;;17.30;99.90;;;;;;5065235;28;20044;-70
2021/08/15 06:07:41;;;;;;;7.97;3.47;;;17.30;99.90;;;;;;5085501;28;20028;-73
2021/08/15 06:10:11;;;;;;;8.23;3.03;;;17.40;99.90;;;;;;5085837;28;20041;-73
2021/08/15 06:12:37;;;;;;;11.10;3.13;;;17.40;99.90;;;;;;5101389;28;20582;-72
2021/08/15 06:15:07;;;;;;;7.63;2.78;;;17.40;99.90;;;;;;5085414;28;20059;-72
2021/08/15 06:17:32;;;;;;;11.18;3.22;;;17.50;99.90;;;;;;5085419;28;20029;-71
2021/08/15 06:19:58;;;;;;;5.63;2.90;;;17.50;99.90;;;;;;5085588;28;20086;-71
2021/08/15 06:22:24;;;;;;;6.18;3.15;;;17.50;99.90;;;;;;5071362;28;20028;-70
2021/08/15 06:24:50;;;;;;;4.45;2.40;;;17.50;99.90;;;;;;5069569;28;20116;-72
2021/08/15 06:27:15;;;;;;;8.38;3.40;;;17.50;99.90;;;;;;5082300;28;20492;-72
2021/08/15 06:29:42;;;;;;;4.68;2.83;;;17.60;99.90;;;;;;5097195;28;20067;-71
2021/08/15 06:32:08;;;;;;;6.45;2.55;;;17.60;99.90;;;;;;5079813;28;20049;-72
2021/08/15 06:34:33;;;;;;;8.48;3.60;;;17.70;99.90;;;;;;5085246;28;20044;-72
2021/08/15 06:36:59;;;;;;;10.43;3.45;;;17.80;99.90;;;;;;5065507;28;20033;-71
2021/08/15 06:39:25;;;;;;;13.23;3.03;;;17.90;99.90;;;;;;5063322;28;20013;-70
2021/08/15 06:41:50;;;;;;;4.55;2.65;;;17.90;99.90;;;;;;5075069;28;20028;-70
2021/08/15 06:44:16;;;;;;;8.50;3.42;;;18.00;99.90;;;;;;5085145;28;20036;-72
2021/08/15 06:46:42;;;;;;;5.72;2.25;;;18.00;99.90;;;;;;5083667;28;20029;-72
2021/08/15 06:49:08;;;;;;;7.15;2.75;;;18.00;99.90;;;;;;5083787;28;20032;-74
2021/08/15 06:51:38;;;;;;;5.65;3.05;;;18.10;99.90;;;;;;5084969;28;20047;-72
2021/08/15 06:54:05;;;;;;;4.57;2.63;;;18.10;99.90;;;;;;5085041;28;20020;-72
2021/08/15 06:56:30;;;;;;;6.72;2.47;;;18.20;99.90;;;;;;5084955;28;20118;-73
2021/08/15 06:58:56;;;;;;;9.50;3.10;;;18.20;99.90;;;;;;5084901;28;20029;-71
2021/08/15 07:01:22;;;;;;;7.35;2.85;;;18.30;99.90;;;;;;5084722;28;20099;-72
2021/08/15 07:03:48;;;;;;;6.20;2.58;;;18.30;99.90;;;;;;5084875;28;20154;-70
2021/08/15 07:06:14;;;;;;;7.97;2.78;;;18.30;99.90;;;;;;5084836;28;20031;-71
2021/08/15 07:08:39;;;;;;;8.95;3.75;;;18.30;99.90;;;;;;5084559;28;20024;-71
2021/08/15 07:11:06;;;;;;;12.25;2.70;;;18.30;99.90;;;;;;5100258;28;20036;-72
2021/08/15 07:13:32;;;;;;;8.45;2.95;;;18.40;99.90;;;;;;5084845;28;20047;-76
2021/08/15 07:15:57;;;;;;;7.40;3.40;;;18.40;99.90;;;;;;5084361;28;20062;-70
2021/08/15 07:18:26;;;;;;;6.47;2.78;;;18.40;99.90;;;;;;5084443;28;20032;-72
2021/08/15 07:20:57;;;;;;;6.47;3.35;;;18.50;99.90;;;;;;5066208;28;20032;-72
2021/08/15 07:23:22;;;;;;;12.50;3.08;;;18.50;99.90;;;;;;5077608;28;20037;-71
2021/08/15 07:25:48;;;;;;;7.05;3.00;;;18.70;99.90;;;;;;5084507;28;20027;-71
2021/08/15 07:28:14;;;;;;;6.38;2.42;;;18.80;99.90;;;;;;5071270;28;20029;-70
2021/08/15 07:30:39;;;;;;;9.95;2.90;;;18.80;99.90;;;;;;5063058;28;20025;-70
2021/08/15 07:33:06;;;;;;;17.63;2.95;;;18.90;99.90;;;;;;5064560;28;20028;-71
2021/08/15 07:35:35;;;;;;;6.82;2.95;;;19.00;99.90;;;;;;5063054;28;20394;-71
2021/08/15 07:38:02;;;;;;;6.70;2.50;;;19.00;99.90;;;;;;5064727;28;20028;-72
2021/08/15 07:40:29;;;;;;;4.57;2.22;;;19.10;99.90;;;;;;5064636;28;20028;-72
2021/08/15 07:42:55;;;;;;;6.22;2.10;;;19.20;99.90;;;;;;5063051;28;20025;-71
2021/08/15 07:45:22;;;;;;;6.43;2.75;;;19.30;99.90;;;;;;5064298;28;20025;-75
2021/08/15 07:47:48;;;;;;;11.13;3.38;;;19.30;99.90;;;;;;5063039;28;20120;-75
2021/08/15 07:50:14;;;;;;;8.70;2.72;;;19.40;99.90;;;;;;5063255;28;20024;-73
2021/08/15 07:52:40;;;;;;;4.05;2.03;;;19.40;99.90;;;;;;5082044;28;20050;-72
2021/08/15 07:55:09;;;;;;;10.15;2.35;;;19.40;99.90;;;;;;5087894;28;20083;-73
2021/08/15 07:57:36;;;;;;;19.17;3.20;;;19.50;99.90;;;;;;5088068;28;20111;-74
2021/08/15 08:00:02;;;;;;;9.65;2.90;;;19.50;99.90;;;;;;5103517;28;20100;-73
2021/08/15 08:02:28;;;;;;;7.40;2.88;;;19.60;99.90;;;;;;5087968;28;20055;-70
2021/08/15 08:04:53;;;;;;;9.13;2.58;;;19.70;99.90;;;;;;5088030;28;20028;-72
2021/08/15 08:07:22;;;;;;;8.45;2.53;;;19.80;99.90;;;;;;5086736;28;20116;-69
2021/08/15 08:09:48;;;;;;;6.13;2.42;;;19.90;99.90;;;;;;5079385;28;20136;-72
2021/08/15 08:12:14;;;;;;;3.13;1.77;;;20.10;99.90;;;;;;5069752;28;20100;-71
2021/08/15 08:14:40;;;;;;;14.75;2.10;;;20.20;99.90;;;;;;5084887;28;20057;-75
2021/08/15 08:17:08;;;;;;;3.90;1.92;;;20.20;99.90;;;;;;5076075;28;20025;-72
2021/08/15 08:19:38;;;;;;;4.57;2.25;;;20.20;99.90;;;;;;5076031;28;20020;-74
2021/08/15 08:22:07;;;;;;;3.83;1.95;;;20.20;99.90;;;;;;5088119;28;20083;-72
2021/08/15 08:24:34;;;;;;;5.28;2.00;;;20.30;99.90;;;;;;5070886;28;20059;-71
2021/08/15 08:27:00;;;;;;;3.47;1.70;;;20.40;99.90;;;;;;5067933;28;20025;-71
2021/08/15 08:29:26;;;;;;;10.38;2.53;;;20.40;99.90;;;;;;5067746;28;20032;-72
2021/08/15 08:31:51;;;;;;;4.07;1.95;;;20.60;99.90;;;;;;5067881;28;20033;-71
2021/08/15 08:34:23;;;;;;;5.65;1.73;;;20.70;99.90;;;;;;5068842;28;20078;-73
2021/08/15 08:36:49;;;;;;;5.95;1.58;;;20.80;99.90;;;;;;5086323;28;20025;-73
2021/08/15 08:39:14;;;;;;;5.95;2.08;;;20.90;99.90;;;;;;5087444;28;20416;-72
2021/08/15 08:41:40;;;;;;;5.55;2.20;;;20.90;99.90;;;;;;5087282;28;20020;-74
2021/08/15 08:44:10;;;;;;;3.00;1.65;;;21.00;99.90;;;;;;5087528;28;20021;-72
2021/08/15 08:46:41;;;;;;;3.92;1.92;;;21.10;99.90;;;;;;5087471;28;20024;-73
2021/08/15 08:49:07;;;;;;;2.92;1.67;;;21.10;99.90;;;;;;5087282;28;20025;-71
2021/08/15 08:51:35;;;;;;;3.72;1.50;;;21.20;99.90;;;;;;5087303;28;20047;-72
2021/08/15 08:54:08;;;;;;;3.38;1.65;;;21.20;99.90;;;;;;5086376;28;20021;-71
2021/08/15 08:56:36;;;;;;;4.40;1.58;;;21.20;99.90;;;;;;5087925;28;20029;-71
2021/08/15 08:59:05;;;;;;;4.57;2.15;;;21.20;99.90;;;;;;5088028;28;20040;-73
2021/08/15 09:01:31;;;;;;;4.50;1.90;;;21.20;99.90;;;;;;5087764;28;20388;-71
2021/08/15 09:03:57;;;;;;;8.30;2.25;;;21.30;99.90;;;;;;5086717;28;20043;-70
2021/08/15 09:06:28;;;;;;;3.75;1.63;;;21.40;99.90;;;;;;5087220;28;20020;-72
2021/08/15 09:08:54;;;;;;;2.10;1.30;;;21.60;99.90;;;;;;5087201;28;20028;-76
2021/08/15 09:11:22;;;;;;;7.60;1.77;;;21.80;99.90;;;;;;5085477;28;20021;-74
2021/08/15 09:14:10;;;;;;;6.55;1.95;;;22.00;99.90;;;;;;5086310;28;20040;-70
2021/08/15 09:17:08;;;;;;;6.13;1.92;;;22.10;99.90;;;;;;5085116;28;20051;-72
2021/08/15 09:19:47;;;;;;;4.18;1.88;;;22.20;99.90;;;;;;5074441;28;20047;-70
2021/08/15 09:22:20;;;;;;;7.40;1.50;;;22.20;99.90;;;;;;5086882;28;20033;-70
2021/08/15 09:24:59;;;;;;;5.47;2.08;;;22.30;99.90;;;;;;5086603;28;20047;-70
2021/08/15 09:27:26;;;;;;;5.85;1.50;;;22.30;99.90;;;;;;5086945;28;20063;-71
2021/08/15 09:30:13;;;;;;;5.25;1.58;;;22.30;99.90;;;;;;5086451;28;20103;-72
2021/08/15 09:32:48;;;;;;;4.35;1.30;;;22.30;99.90;;;;;;5086708;28;20024;-72
2021/08/15 09:35:24;;;;;;;8.45;1.52;;;22.30;99.90;;;;;;5086386;28;20029;-72
2021/08/15 09:38:16;;;;;;;4.85;1.27;;;22.30;99.90;;;;;;5086308;28;20024;-71
2021/08/15 09:40:46;;;;;;;3.95;1.67;;;22.30;99.90;;;;;;5086244;28;20025;-72
2021/08/15 09:43:23;;;;;;;6.15;1.55;;;22.30;99.90;;;;;;5085871;28;20067;-75
2021/08/15 09:45:50;;;;;;;4.50;1.50;;;22.30;99.90;;;;;;5086177;28;20040;-71
2021/08/15 09:48:24;;;;;;;2.15;1.20;;;22.30;99.90;;;;;;5086135;28;20029;-76
2021/08/15 09:51:08;;;;;;;3.20;1.40;;;22.40;99.90;;;;;;5086438;28;20104;-71
2021/08/15 09:53:41;;;;;;;6.57;1.58;;;22.60;99.90;;;;;;5101265;28;20029;-73
2021/08/15 09:56:07;;;;;;;8.05;1.92;;;22.70;99.90;;;;;;5085395;28;20086;-73
2021/08/15 09:58:37;;;;;;;9.38;1.58;;;22.80;99.90;;;;;;5101638;28;20021;-73
2021/08/15 10:01:08;;;;;;;3.33;1.42;;;22.90;99.90;;;;;;5086138;28;20024;-72
2021/08/15 10:03:36;;;;;;;9.52;1.85;;;22.80;99.90;;;;;;5086119;28;20021;-72
2021/08/15 10:06:04;;;;;;;2.97;1.42;;;22.80;99.90;;;;;;5101415;28;20021;-72
2021/08/15 10:08:39;;;;;;;8.35;2.22;;;23.00;99.90;;;;;;5086031;28;20040;-73
2021/08/15 10:11:07;;;;;;;4.50;1.95;;;23.00;99.90;;;;;;5085891;28;20036;-75
2021/08/15 10:13:34;;;;;;;6.53;2.03;;;22.80;99.90;;;;;;5085570;28;20024;-74
2021/08/15 10:16:08;;;;;;;4.18;1.80;;;22.90;99.90;;;;;;5084924;28;20084;-79
2021/08/15 10:18:39;;;;;;;4.00;2.10;;;23.00;99.90;;;;;;5084380;28;20056;-73
2021/08/15 10:21:13;;;;;;;7.35;1.90;;;23.10;99.90;;;;;;5101541;28;20029;-78
2021/08/15 10:23:42;;;;;;;2.73;1.40;;;23.20;99.90;;;;;;5085385;28;20043;-72
2021/08/15 10:26:26;;;;;;;10.07;1.42;;;23.20;99.90;;;;;;5101041;28;20028;-73
2021/08/15 10:28:55;;;;;;;4.97;2.08;;;23.20;99.90;;;;;;5085061;28;20040;-74
2021/08/15 10:31:21;;;;;;;3.92;2.13;;;23.10;99.90;;;;;;5085139;28;20038;-71
2021/08/15 10:33:55;;;;;;;7.20;2.20;;;23.20;99.90;;;;;;5100600;28;20506;-72
2021/08/15 10:36:24;;;;;;;;;;;23.30;99.90;;;;;;5101255;28;20108;-73
2021/08/15 10:38:51;;;;;;;4.28;1.77;;;23.50;99.90;;;;;;5085256;28;19911;-71
2021/08/15 10:41:44;;;;;;;4.65;1.98;;;23.70;99.90;;;;;;5100537;28;20091;-73
2021/08/15 10:44:10;;;;;;;4.13;1.95;;;24.00;99.90;;;;;;5085152;28;20032;-72
2021/08/15 10:46:57;;;;;;;4.18;2.35;;;24.00;99.90;;;;;;5085136;28;20029;-74
2021/08/15 10:49:56;;;;;;;10.32;2.67;;;24.20;99.90;;;;;;5100517;28;20531;-71
2021/08/15 10:52:40;;;;;;;2.25;1.48;;;24.40;99.90;;;;;;5085048;28;20086;-75
2021/08/15 10:55:18;;;;;;;4.82;2.53;;;24.70;99.90;;;;;;5084791;28;20028;-74
2021/08/15 10:57:53;;;;;;;5.55;1.70;;;24.80;99.90;;;;;;5100599;28;20123;-71
2021/08/15 11:00:33;;;;;;;4.90;2.08;;;24.90;99.90;;;;;;5084927;28;20080;-72
2021/08/15 11:03:12;;;;;;;4.65;1.83;;;24.80;99.90;;;;;;5084968;28;20029;-73
2021/08/15 11:05:39;;;;;;;3.33;2.03;;;24.70;99.90;;;;;;5100341;28;20025;-75
2021/08/15 11:08:34;;;;;;;4.88;2.50;;;24.60;99.90;;;;;;5100311;28;20036;-74
2021/08/15 11:11:19;;;;;;;8.65;2.88;;;24.60;99.90;;;;;;5084780;28;20024;-74
2021/08/15 11:13:44;;;;;;;;;;;24.80;99.90;;;;;;5085111;28;20048;-73
2021/08/15 11:16:25;;;;;;;2.67;1.75;;;25.00;99.90;;;;;;5084311;28;20479;-73
2021/08/15 11:19:11;;;;;;;3.75;2.13;;;25.10;99.90;;;;;;5084140;28;20797;-76
2021/08/15 11:22:16;;;;;;;5.93;2.22;;;25.30;99.90;;;;;;5084571;28;20029;-72
2021/08/15 11:24:45;;;;;;;6.10;2.10;;;25.50;99.90;;;;;;5084091;28;20024;-72
2021/08/15 11:27:30;;;;;;;2.58;1.52;;;25.80;99.90;;;;;;5083944;28;20032;-72
2021/08/15 11:29:58;;;;;;;4.68;1.80;;;25.80;99.90;;;;;;5084848;28;20024;-74
2021/08/15 11:32:29;;;;;;;7.80;1.60;;;25.80;99.90;;;;;;5084670;28;20059;-71
2021/08/15 11:35:08;;;;;;;6.15;1.92;;;25.70;99.90;;;;;;5084430;28;20048;-77
2021/08/15 11:37:40;;;;;;;3.80;1.80;;;25.60;99.90;;;;;;5100089;28;20146;-75
2021/08/15 11:40:20;;;;;;;5.82;2.10;;;25.60;99.90;;;;;;5084668;28;20032;-72
2021/08/15 11:42:56;;;;;;;3.97;1.95;;;25.50;99.90;;;;;;5099801;28;20066;-75
2021/08/15 11:45:31;;;;;;;7.25;2.38;;;25.30;99.90;;;;;;5084145;28;20100;-70
2021/08/15 11:48:08;;;;;;;10.38;2.55;;;25.10;99.90;;;;;;5084393;28;20028;-74
2021/08/15 11:50:36;;;;;;;3.00;2.00;;;25.00;99.90;;;;;;5084733;28;20025;-71
2021/08/15 11:53:02;;;;;;;2.97;1.52;;;24.90;99.90;;;;;;5084452;28;20021;-74
2021/08/15 11:55:29;;;;;;;13.07;1.25;;;25.10;99.90;;;;;;5082662;28;20033;-73
2021/08/15 11:57:57;;;;;;;6.45;2.10;;;25.30;99.90;;;;;;5099841;28;20035;-74
2021/08/15 12:00:34;;;;;;;7.35;1.70;;;25.40;99.90;;;;;;5100038;28;20032;-73
2021/08/15 12:03:19;;;;;;;6.10;1.83;;;25.60;99.90;;;;;;5084420;28;20051;-72
2021/08/15 12:05:56;;;;;;;2.25;1.58;;;25.60;99.90;;;;;;5084581;28;20035;-77
2021/08/15 12:08:37;;;;;;;2.38;1.35;;;25.80;99.90;;;;;;5084439;28;20508;-75
2021/08/15 12:11:21;;;;;;;5.95;1.50;;;26.10;99.90;;;;;;5100000;28;20032;-76
2021/08/15 12:13:46;;;;;;;3.53;1.73;;;26.40;99.90;;;;;;5084018;28;20104;-70
2021/08/15 12:16:13;;;;;;;3.65;1.30;;;26.60;99.90;;;;;;5084156;28;20079;-73
2021/08/15 12:18:48;;;;;;;3.65;2.33;;;26.80;99.90;;;;;;5083865;28;20561;-75
2021/08/15 12:21:19;;;;;;;3.78;2.20;;;26.80;99.90;;;;;;5099613;28;20032;-74
2021/08/15 12:24:06;;;;;;;8.73;2.40;;;26.90;99.90;;;;;;5084146;28;20025;-73
2021/08/15 12:26:52;;;;;;;3.00;2.05;;;27.00;99.90;;;;;;5084180;28;20070;-77
2021/08/15 12:29:35;;;;;;;11.77;2.83;;;27.20;99.90;;;;;;5083982;28;20036;-73
2021/08/15 12:32:08;;;;;;;6.93;2.53;;;27.30;99.90;;;;;;5083906;28;20052;-75
2021/08/15 12:34:41;;;;;;;6.13;2.97;;;27.10;99.90;;;;;;5082828;28;20025;-76
2021/08/15 12:37:22;;;;;;;6.57;2.38;;;27.10;99.90;;;;;;5084006;28;20020;-73
2021/08/15 12:40:08;;;;;;;10.13;2.50;;;27.20;99.90;;;;;;5086889;28;20062;-72
2021/08/15 12:42:36;;;;;;;4.20;2.25;;;27.40;99.90;;;;;;5086062;28;20162;-74
2021/08/15 12:45:09;;;;;;;4.35;2.33;;;27.70;99.90;;;;;;5086800;28;20020;-72
2021/08/15 12:47:36;;;;;;;3.88;2.10;;;27.90;99.90;;;;;;5086893;28;20080;-72
2021/08/15 12:50:15;;;;;;;4.57;2.42;;;28.20;99.90;;;;;;5086053;28;20040;-74
2021/08/15 12:52:49;;;;;;;7.25;2.90;;;28.60;99.90;;;;;;5087096;28;20024;-73
2021/08/15 12:55:24;;;;;;;5.75;2.70;;;28.90;99.90;;;;;;5086563;28;20036;-77